Time;durP1;ratioP1;P1;durP2;ratioP2;P2;SDS_P1;SDS_P2;PMS_P1;PMS_P2;Temp;Humidity;BMP_temperature;BMP_pressure;BME280_temperature;BME280_humidity;BME280_pressure;Samples;Min_cycle;Max_cycle;Signal;HPM_P1;HPM_P2
2022/11/14 00:02:04;;;;;;;;;;;11.90;99.90;;;;;;5074563;28;19921;-70
2022/11/14 00:04:29;;;;;;;;;;;11.80;99.90;;;;;;5074098;28;19912;-70
2022/11/14 00:06:55;;;;;;;;;;;11.80;99.90;;;;;;5068243;28;19940;-70
2022/11/14 00:09:25;;;;;;;;;;;11.80;99.90;;;;;;5073058;28;19967;-70
2022/11/14 00:11:51;;;;;;;;;;;11.80;99.90;;;;;;5083725;28;19955;-70
2022/11/14 00:14:16;;;;;;;;;;;11.80;99.90;;;;;;5076158;28;19920;-70
2022/11/14 00:16:42;;;;;;;;;;;11.80;99.90;;;;;;5080183;28;19912;-71
2022/11/14 00:19:08;;;;;;;;;;;11.70;99.90;;;;;;5081555;28;19920;-70
2022/11/14 00:21:33;;;;;;;;;;;11.80;99.90;;;;;;5081914;28;20386;-71
2022/11/14 00:23:59;;;;;;;;;;;11.80;99.90;;;;;;5071165;28;19913;-71
2022/11/14 00:26:24;;;;;;;;;;;11.80;99.90;;;;;;5064145;28;19916;-71
2022/11/14 00:28:50;;;;;;;;;;;11.80;99.90;;;;;;5074697;28;19935;-71
2022/11/14 00:31:16;;;;;;;;;;;11.90;99.90;;;;;;5075862;28;19943;-70
2022/11/14 00:33:41;;;;;;;;;;;11.80;99.90;;;;;;5077249;28;19919;-71
2022/11/14 00:36:07;;;;;;;;;;;11.80;99.90;;;;;;5091819;28;19917;-71
2022/11/14 00:38:33;;;;;;;;;;;11.80;99.90;;;;;;5080633;28;19964;-71
2022/11/14 00:40:58;;;;;;;;;;;11.80;99.90;;;;;;5084293;28;19923;-70
2022/11/14 00:43:24;;;;;;;;;;;11.80;99.90;;;;;;5058778;28;19913;-70
2022/11/14 00:45:49;;;;;;;;;;;11.90;99.90;;;;;;5067191;28;19983;-71
2022/11/14 00:48:15;;;;;;;;;;;11.90;99.90;;;;;;5088530;28;19959;-71
2022/11/14 00:50:42;;;;;;;;;;;11.90;99.90;;;;;;5051170;28;20003;-71
2022/11/14 00:53:07;;;;;;;;;;;11.80;99.90;;;;;;5075780;28;20410;-71
2022/11/14 00:55:33;;;;;;;;;;;11.80;99.90;;;;;;5086461;28;19920;-71
2022/11/14 00:57:59;;;;;;;;;;;11.80;99.90;;;;;;5062847;28;19923;-70
2022/11/14 01:00:24;;;;;;;;;;;11.70;99.90;;;;;;5080436;28;19912;-71
2022/11/14 01:02:50;;;;;;;;;;;11.70;99.90;;;;;;5077598;28;20613;-71
2022/11/14 01:05:16;;;;;;;;;;;11.70;99.90;;;;;;5078741;28;19923;-70
2022/11/14 01:07:41;;;;;;;;;;;11.70;99.90;;;;;;5095130;28;20442;-71
2022/11/14 01:10:07;;;;;;;;;;;11.80;99.90;;;;;;5079461;28;20207;-70
2022/11/14 01:12:33;;;;;;;;;;;11.80;99.90;;;;;;5078282;28;19913;-71
2022/11/14 01:14:59;;;;;;;;;;;11.90;99.90;;;;;;5081630;28;19919;-71
2022/11/14 01:17:27;;;;;;;;;;;12.00;99.90;;;;;;5090218;28;19919;-71
2022/11/14 01:19:53;;;;;;;;;;;12.00;99.90;;;;;;5084140;28;19944;-70
2022/11/14 01:22:19;;;;;;;;;;;12.00;99.90;;;;;;5074902;28;19936;-71
2022/11/14 01:24:44;;;;;;;;;;;12.10;99.90;;;;;;5083150;28;19919;-70
2022/11/14 01:27:10;;;;;;;;;;;12.00;99.90;;;;;;5096182;28;20437;-70
2022/11/14 01:29:36;;;;;;;;;;;12.00;99.90;;;;;;5086149;28;19916;-71
2022/11/14 01:32:01;;;;;;;;;;;12.10;99.90;;;;;;5097304;28;19927;-70
2022/11/14 01:34:30;;;;;;;;;;;12.00;99.90;;;;;;5078227;28;20171;-71
2022/11/14 01:37:04;;;;;;;;;;;12.10;99.90;;;;;;5089012;28;20424;-70
2022/11/14 01:39:30;;;;;;;;;;;12.10;99.90;;;;;;5100074;28;20021;-70
2022/11/14 01:41:57;;;;;;;;;;;12.10;99.90;;;;;;5087757;28;19942;-71
2022/11/14 01:44:41;;;;;;;;;;;12.20;99.90;;;;;;5092212;28;19916;-71
2022/11/14 01:47:07;;;;;;;;;;;12.30;99.90;;;;;;5084052;28;20352;-70
2022/11/14 01:49:40;;;;;;;;;;;12.30;99.90;;;;;;5095033;28;19909;-70
2022/11/14 01:52:45;;;;;;;;;;;12.40;99.90;;;;;;5071883;28;19912;-71
2022/11/14 01:56:04;;;;;;;;;;;12.30;99.90;;;;;;5036738;28;19909;-70
2022/11/14 01:59:05;;;;;;;;;;;12.30;99.90;;;;;;5054084;28;20977;-69
2022/11/14 02:05:35;;;;;;;;;;;12.20;99.90;;;;;;5075356;28;20401;-68
2022/11/14 02:11:48;;;;;;;;;;;;;;;;;;;;;
2022/11/14 02:17:49;;;;;;;;;;;12.20;99.90;;;;;;5020447;28;19996;-68
2022/11/14 02:21:03;;;;;;;;;;;12.20;99.90;;;;;;5008439;28;19912;-68
2022/11/14 02:24:10;;;;;;;;;;;12.20;99.90;;;;;;5008125;28;19914;-69
2022/11/14 02:26:36;;;;;;;;;;;12.20;99.90;;;;;;4983699;28;20005;-69
2022/11/14 02:29:02;;;;;;;;;;;12.20;99.90;;;;;;5066005;28;19919;-69
2022/11/14 02:31:28;;;;;;;;;;;12.20;99.90;;;;;;5087110;28;20007;-69
2022/11/14 02:33:53;;;;;;;;;;;12.20;99.90;;;;;;5058626;28;19912;-69
2022/11/14 02:36:19;;;;;;;;;;;12.20;99.90;;;;;;5074282;28;19912;-68
2022/11/14 02:38:45;;;;;;;;;;;12.30;99.90;;;;;;5073847;28;19916;-69
2022/11/14 02:41:10;;;;;;;;;;;12.30;99.90;;;;;;5074751;28;19908;-69
2022/11/14 02:43:36;;;;;;;;;;;12.30;99.90;;;;;;5074650;28;19913;-69
2022/11/14 02:46:01;;;;;;;;;;;12.30;99.90;;;;;;5073599;28;19982;-69
2022/11/14 02:48:27;;;;;;;;;;;12.30;99.90;;;;;;5056855;28;19963;-70
2022/11/14 02:50:57;;;;;;;;;;;12.30;99.90;;;;;;5073740;28;20014;-69
2022/11/14 02:53:22;;;;;;;;;;;12.30;99.90;;;;;;5075858;28;20317;-69
2022/11/14 02:55:48;;;;;;;;;;;12.30;99.90;;;;;;5073756;28;20003;-69
2022/11/14 02:58:14;;;;;;;;;;;12.50;99.90;;;;;;5073531;28;20056;-68
2022/11/14 03:00:40;;;;;;;;;;;12.60;99.90;;;;;;5074231;28;19912;-69
2022/11/14 03:03:05;;;;;;;;;;;12.60;99.90;;;;;;5054949;28;19973;-70
2022/11/14 03:05:31;;;;;;;;;;;12.70;99.90;;;;;;5059659;28;19916;-68
2022/11/14 03:07:56;;;;;;;;;;;12.60;99.90;;;;;;5074534;28;19912;-68
2022/11/14 03:10:23;;;;;;;;;;;12.60;99.90;;;;;;5057058;28;19996;-70
2022/11/14 03:12:52;;;;;;;;;;;12.60;99.90;;;;;;5072551;28;20375;-69
2022/11/14 03:15:18;;;;;;;;;;;12.60;99.90;;;;;;5068104;28;19912;-69
2022/11/14 03:17:43;;;;;;;;;;;12.60;99.90;;;;;;5056401;28;19908;-69
2022/11/14 03:20:09;;;;;;;;;;;12.60;99.90;;;;;;5072548;28;19930;-68
2022/11/14 03:22:35;;;;;;;;;;;12.60;99.90;;;;;;5056277;28;20007;-69
2022/11/14 03:25:01;;;;;;;;;;;12.60;99.90;;;;;;5073916;28;20559;-70
2022/11/14 03:27:26;;;;;;;;;;;12.60;99.90;;;;;;5075885;28;19912;-69
2022/11/14 03:29:52;;;;;;;;;;;12.50;99.90;;;;;;5072902;28;20405;-69
2022/11/14 03:32:18;;;;;;;;;;;12.50;99.90;;;;;;5072425;28;19909;-70
2022/11/14 03:34:43;;;;;;;;;;;12.50;99.90;;;;;;5073005;28;19948;-68
2022/11/14 03:37:09;;;;;;;;;;;12.60;99.90;;;;;;5073999;28;19924;-70
2022/11/14 03:39:35;;;;;;;;;;;12.60;99.90;;;;;;5072797;28;19921;-70
2022/11/14 03:42:00;;;;;;;;;;;12.60;99.90;;;;;;5075373;28;19931;-70
2022/11/14 03:44:26;;;;;;;;;;;12.60;99.90;;;;;;5075092;28;19941;-69
2022/11/14 03:46:52;;;;;;;;;;;12.70;99.90;;;;;;5070758;28;19951;-69
2022/11/14 03:49:17;;;;;;;;;;;12.70;99.90;;;;;;5071690;28;19913;-70
2022/11/14 03:51:43;;;;;;;;;;;12.70;99.90;;;;;;5051355;28;19913;-69
2022/11/14 03:54:09;;;;;;;;;;;12.60;99.90;;;;;;5055143;28;19943;-69
2022/11/14 03:56:34;;;;;;;;;;;12.60;99.90;;;;;;5073472;28;19908;-69
2022/11/14 03:59:09;;;;;;;;;;;12.60;99.90;;;;;;5066894;28;20401;-70
2022/11/14 04:01:35;;;;;;;;;;;12.60;99.90;;;;;;5077053;28;20003;-69
2022/11/14 04:04:04;;;;;;;;;;;12.50;99.90;;;;;;5070679;28;19999;-70
2022/11/14 04:06:33;;;;;;;;;;;12.50;99.90;;;;;;5072575;28;20386;-69
2022/11/14 04:09:02;;;;;;;;;;;12.50;99.90;;;;;;5067869;28;19999;-69
2022/11/14 04:11:28;;;;;;;;;;;12.40;99.90;;;;;;5077092;28;19959;-69
2022/11/14 04:13:54;;;;;;;;;;;12.50;99.90;;;;;;5069147;28;19913;-70
2022/11/14 04:16:43;;;;;;;;;;;12.50;99.90;;;;;;5071067;28;19912;-70
2022/11/14 04:19:09;;;;;;;;;;;12.50;99.90;;;;;;5070960;28;19928;-69
2022/11/14 04:21:35;;;;;;;;;;;12.40;99.90;;;;;;5073629;28;19909;-69
2022/11/14 04:24:00;;;;;;;;;;;12.30;99.90;;;;;;5072422;28;19913;-69
2022/11/14 04:26:26;;;;;;;;;;;12.30;99.90;;;;;;5068725;28;20008;-70
2022/11/14 04:28:52;;;;;;;;;;;12.40;99.90;;;;;;5073538;28;19913;-69
2022/11/14 04:31:17;;;;;;;;;;;12.40;99.90;;;;;;5062048;28;19913;-69
2022/11/14 04:33:43;;;;;;;;;;;12.40;99.90;;;;;;5073011;28;20016;-69
2022/11/14 04:36:09;;;;;;;;;;;12.30;99.90;;;;;;5073373;28;19917;-69
2022/11/14 04:38:34;;;;;;;;;;;12.40;99.90;;;;;;5069324;28;19975;-70
2022/11/14 04:41:00;;;;;;;;;;;12.30;99.90;;;;;;5063043;28;19912;-69
2022/11/14 04:43:26;;;;;;;;;;;12.30;99.90;;;;;;5078855;28;19927;-69
2022/11/14 04:45:51;;;;;;;;;;;12.20;99.90;;;;;;5055515;28;19917;-70
2022/11/14 04:48:17;;;;;;;;;;;12.20;99.90;;;;;;5076476;28;20568;-70
2022/11/14 04:50:44;;;;;;;;;;;12.20;99.90;;;;;;5055523;28;19913;-70
2022/11/14 04:53:09;;;;;;;;;;;12.20;99.90;;;;;;5076639;28;19913;-69
2022/11/14 04:55:35;;;;;;;;;;;12.30;99.90;;;;;;5079628;28;19993;-69
2022/11/14 04:58:01;;;;;;;;;;;12.20;99.90;;;;;;5076467;28;19915;-70
2022/11/14 05:00:27;;;;;;;;;;;12.10;99.90;;;;;;5076045;28;20010;-69
2022/11/14 05:02:52;;;;;;;;;;;12.10;99.90;;;;;;5076498;28;20003;-69
2022/11/14 05:05:18;;;;;;;;;;;12.00;99.90;;;;;;5058318;28;19952;-68
2022/11/14 05:07:44;;;;;;;;;;;12.00;99.90;;;;;;5085865;28;19914;-70
2022/11/14 05:10:09;;;;;;;;;;;12.00;99.90;;;;;;5073928;28;19926;-68
2022/11/14 05:12:35;;;;;;;;;;;12.00;99.90;;;;;;5066913;28;19912;-70
2022/11/14 05:15:00;;;;;;;;;;;12.00;99.90;;;;;;5076793;28;20369;-69
2022/11/14 05:17:26;;;;;;;;;;;12.10;99.90;;;;;;5076281;28;20374;-69
2022/11/14 05:19:52;;;;;;;;;;;12.10;99.90;;;;;;5057939;28;19913;-69
2022/11/14 05:22:18;;;;;;;;;;;12.00;99.90;;;;;;5077000;28;19969;-69
2022/11/14 05:24:43;;;;;;;;;;;12.10;99.90;;;;;;5074274;28;20382;-70
2022/11/14 05:27:09;;;;;;;;;;;12.10;99.90;;;;;;5060353;28;20370;-69
2022/11/14 05:29:34;;;;;;;;;;;12.20;99.90;;;;;;5073764;28;19912;-69
2022/11/14 05:32:00;;;;;;;;;;;12.20;99.90;;;;;;5075709;28;19913;-69
2022/11/14 05:34:26;;;;;;;;;;;12.30;99.90;;;;;;5076241;28;19999;-70
2022/11/14 05:36:52;;;;;;;;;;;12.30;99.90;;;;;;5054628;28;19921;-70
2022/11/14 05:39:17;;;;;;;;;;;12.20;99.90;;;;;;5073665;28;19912;-69
2022/11/14 05:41:43;;;;;;;;;;;12.20;99.90;;;;;;5060665;28;19912;-70
2022/11/14 05:44:09;;;;;;;;;;;12.20;99.90;;;;;;5079197;28;19954;-69
2022/11/14 05:46:34;;;;;;;;;;;12.20;99.90;;;;;;5084315;28;20036;-69
2022/11/14 05:49:00;;;;;;;;;;;12.20;99.90;;;;;;5057604;28;19912;-69
2022/11/14 05:51:26;;;;;;;;;;;12.20;99.90;;;;;;5075068;28;19917;-69
2022/11/14 05:53:51;;;;;;;;;;;12.20;99.90;;;;;;5075464;28;20366;-70
2022/11/14 05:56:17;;;;;;;;;;;12.20;99.90;;;;;;5073219;28;19997;-69
2022/11/14 05:58:43;;;;;;;;;;;12.20;99.90;;;;;;5074543;28;19986;-69
2022/11/14 06:01:13;;;;;;;;;;;12.20;99.90;;;;;;5058127;28;19909;-69
2022/11/14 06:03:40;;;;;;;;;;;12.20;99.90;;;;;;5075623;28;19919;-70
2022/11/14 06:06:06;;;;;;;;;;;12.20;99.90;;;;;;5058018;28;19912;-70
2022/11/14 06:08:32;;;;;;;;;;;12.10;99.90;;;;;;5082318;28;19913;-68
2022/11/14 06:11:02;;;;;;;;;;;12.20;99.90;;;;;;5083392;28;19963;-69
2022/11/14 06:13:28;;;;;;;;;;;12.20;99.90;;;;;;5057381;28;19912;-70
2022/11/14 06:15:57;;;;;;;;;;;12.30;99.90;;;;;;5070326;28;19960;-69
2022/11/14 06:18:23;;;;;;;;;;;12.30;99.90;;;;;;5071395;28;19957;-70
2022/11/14 06:20:48;;;;;;;;;;;12.30;99.90;;;;;;5077565;28;19912;-70
2022/11/14 06:23:14;;;;;;;;;;;12.30;99.90;;;;;;5075289;28;19999;-70
2022/11/14 06:25:40;;;;;;;;;;;12.40;99.90;;;;;;5075808;28;19913;-70
2022/11/14 06:28:06;;;;;;;;;;;12.40;99.90;;;;;;5080131;28;20373;-70
2022/11/14 06:30:31;;;;;;;;;;;12.50;99.90;;;;;;5074702;28;19954;-69
2022/11/14 06:32:59;;;;;;;;;;;12.40;99.90;;;;;;5074987;28;20298;-69
2022/11/14 06:35:26;;;;;;;;;;;12.40;99.90;;;;;;5078938;28;19912;-69
2022/11/14 06:37:52;;;;;;;;;;;12.40;99.90;;;;;;5077382;28;19921;-70
2022/11/14 06:40:17;;;;;;;;;;;12.40;99.90;;;;;;5068844;28;19948;-70
2022/11/14 06:42:43;;;;;;;;;;;12.40;99.90;;;;;;5078633;28;19920;-70
2022/11/14 06:45:09;;;;;;;;;;;12.50;99.90;;;;;;5059480;28;19932;-69
2022/11/14 06:47:35;;;;;;;;;;;12.50;99.90;;;;;;5075815;28;19908;-70
2022/11/14 06:50:01;;;;;;;;;;;12.60;99.90;;;;;;5074768;28;19966;-70
2022/11/14 06:52:26;;;;;;;;;;;12.60;99.90;;;;;;5074629;28;19920;-72
2022/11/14 06:54:52;;;;;;;;;;;12.70;99.90;;;;;;5057532;28;19923;-69
2022/11/14 06:57:18;;;;;;;;;;;12.70;99.90;;;;;;5074984;28;19919;-70
2022/11/14 06:59:44;;;;;;;;;;;12.80;99.90;;;;;;5048304;28;20008;-70
2022/11/14 07:02:11;;;;;;;;;;;12.80;99.90;;;;;;5073496;28;19981;-69
2022/11/14 07:04:37;;;;;;;;;;;12.80;99.90;;;;;;5080557;28;19924;-69
2022/11/14 07:07:03;;;;;;;;;;;12.80;99.90;;;;;;5062616;28;19916;-70
2022/11/14 07:09:29;;;;;;;;;;;12.80;99.90;;;;;;5069800;28;19927;-74
2022/11/14 07:11:54;;;;;;;;;;;12.80;99.90;;;;;;5056393;28;19963;-69
2022/11/14 07:14:20;;;;;;;;;;;12.80;99.90;;;;;;5073798;28;19913;-69
2022/11/14 07:16:46;;;;;;;;;;;12.80;99.90;;;;;;5081627;28;19909;-69
2022/11/14 07:19:12;;;;;;;;;;;12.80;99.90;;;;;;5088470;28;19908;-69
2022/11/14 07:21:38;;;;;;;;;;;12.90;99.90;;;;;;5075488;28;19999;-69
2022/11/14 07:24:04;;;;;;;;;;;12.90;99.90;;;;;;5075158;28;20400;-69
2022/11/14 07:26:30;;;;;;;;;;;12.90;99.90;;;;;;5071244;28;19920;-70
2022/11/14 07:28:56;;;;;;;;;;;13.00;99.90;;;;;;5078454;28;19921;-70
2022/11/14 07:31:21;;;;;;;;;;;13.00;99.90;;;;;;5080781;28;19965;-69
2022/11/14 07:33:47;;;;;;;;;;;13.10;99.90;;;;;;5079946;28;20346;-69
2022/11/14 07:36:14;;;;;;;;;;;13.10;99.90;;;;;;5076222;28;19914;-69
2022/11/14 07:38:39;;;;;;;;;;;13.10;99.90;;;;;;5060390;28;20321;-70
2022/11/14 07:41:07;;;;;;;;;;;13.10;99.90;;;;;;5074912;28;19908;-69
2022/11/14 07:43:32;;;;;;;;;;;13.10;99.90;;;;;;5073358;28;19962;-69
2022/11/14 07:45:59;;;;;;;;;;;13.20;99.90;;;;;;5074875;28;20015;-70
2022/11/14 07:48:24;;;;;;;;;;;13.20;99.90;;;;;;5056120;28;19909;-69
2022/11/14 07:50:50;;;;;;;;;;;13.30;99.90;;;;;;5058170;28;19915;-70
2022/11/14 07:53:16;;;;;;;;;;;13.40;99.90;;;;;;5037340;28;19909;-69
2022/11/14 07:55:42;;;;;;;;;;;13.30;99.90;;;;;;5054852;28;20003;-69
2022/11/14 07:58:08;;;;;;;;;;;13.30;99.90;;;;;;5037018;28;20342;-69
2022/11/14 08:00:34;;;;;;;;;;;13.30;99.90;;;;;;5072992;28;19913;-69
2022/11/14 08:03:00;;;;;;;;;;;13.30;99.90;;;;;;5056145;28;19908;-68
2022/11/14 08:05:25;;;;;;;;;;;13.30;99.90;;;;;;5055629;28;19915;-69
2022/11/14 08:07:51;;;;;;;;;;;13.40;99.90;;;;;;5074426;28;19916;-69
2022/11/14 08:10:18;;;;;;;;;;;13.40;99.90;;;;;;5074414;28;19919;-70
2022/11/14 08:12:44;;;;;;;;;;;13.50;99.90;;;;;;5073781;28;19915;-70
2022/11/14 08:15:13;;;;;;;;;;;13.50;99.90;;;;;;5067051;28;19950;-68
2022/11/14 08:17:39;;;;;;;;;;;13.60;99.90;;;;;;5076250;28;19912;-69
2022/11/14 08:20:06;;;;;;;;;;;13.60;99.90;;;;;;5055114;28;20005;-70
2022/11/14 08:22:46;;;;;;;;;;;13.60;99.90;;;;;;5073300;28;20002;-69
2022/11/14 08:25:12;;;;;;;;;;;13.70;99.90;;;;;;5055986;28;19948;-70
2022/11/14 08:27:37;;;;;;;;;;;13.60;99.90;;;;;;5053314;28;19939;-72
2022/11/14 08:30:03;;;;;;;;;;;13.70;99.90;;;;;;5058736;28;19920;-71
2022/11/14 08:32:29;;;;;;;;;;;13.70;99.90;;;;;;5050330;28;19912;-72
2022/11/14 08:34:55;;;;;;;;;;;13.80;99.90;;;;;;5073157;28;19920;-72
2022/11/14 08:37:20;;;;;;;;;;;13.80;99.90;;;;;;5072819;28;19924;-70
2022/11/14 08:39:46;;;;;;;;;;;13.80;99.90;;;;;;5069729;28;20003;-70
2022/11/14 08:42:11;;;;;;;;;;;13.80;99.90;;;;;;5061349;28;19912;-70
2022/11/14 08:44:37;;;;;;;;;;;13.90;99.90;;;;;;5075390;28;20024;-70
2022/11/14 08:47:03;;;;;;;;;;;13.90;99.90;;;;;;5074135;28;19963;-71
2022/11/14 08:49:29;;;;;;;;;;;13.90;99.90;;;;;;5072054;28;19965;-71
2022/11/14 08:51:54;;;;;;;;;;;13.90;99.90;;;;;;5047990;28;19954;-71
2022/11/14 08:54:20;;;;;;;;;;;13.90;99.90;;;;;;5055849;28;19909;-70
2022/11/14 08:56:49;;;;;;;;;;;13.90;99.90;;;;;;5086999;28;19912;-70
2022/11/14 08:59:15;;;;;;;;;;;13.90;99.90;;;;;;5073306;28;19909;-70
2022/11/14 09:01:41;;;;;;;;;;;13.90;99.90;;;;;;5073183;28;19912;-71
2022/11/14 09:04:07;;;;;;;;;;;13.90;99.90;;;;;;5064610;28;20382;-71
2022/11/14 09:06:33;;;;;;;;;;;14.00;99.90;;;;;;5078190;28;19917;-71
2022/11/14 09:08:59;;;;;;;;;;;14.00;99.90;;;;;;5066596;28;19912;-71
2022/11/14 09:11:24;;;;;;;;;;;14.10;99.90;;;;;;5067489;28;19919;-70
2022/11/14 09:13:50;;;;;;;;;;;14.20;99.90;;;;;;5070791;28;20289;-71
2022/11/14 09:16:16;;;;;;;;;;;14.20;99.90;;;;;;5074939;28;19912;-71
2022/11/14 09:18:41;;;;;;;;;;;14.30;99.90;;;;;;5052161;28;19916;-71
2022/11/14 09:21:07;;;;;;;;;;;14.30;99.90;;;;;;5068172;28;20298;-71
2022/11/14 09:23:33;;;;;;;;;;;14.40;99.90;;;;;;5072248;28;19951;-71
2022/11/14 09:26:06;;;;;;;;;;;14.50;99.90;;;;;;5066595;28;19916;-71
2022/11/14 09:28:32;;;;;;;;;;;14.60;99.90;;;;;;5072678;28;19913;-71
2022/11/14 09:31:01;;;;;;;;;;;14.70;99.90;;;;;;5069394;28;20435;-71
2022/11/14 09:33:27;;;;;;;;;;;14.70;99.90;;;;;;5077947;28;19923;-71
2022/11/14 09:35:59;;;;;;;;;;;14.80;99.90;;;;;;5060777;28;19913;-70
2022/11/14 09:38:25;;;;;;;;;;;14.80;99.90;;;;;;5084540;28;20433;-72
2022/11/14 09:40:58;;;;;;;;;;;14.80;99.90;;;;;;5059390;28;19956;-71
2022/11/14 09:43:38;;;;;;;;;;;14.80;99.90;;;;;;5073220;28;20442;-70
2022/11/14 09:46:12;;;;;;;;;;;14.80;99.90;;;;;;5059253;28;19924;-71
2022/11/14 09:48:37;;;;;;;;;;;14.80;99.90;;;;;;5082789;28;20306;-71
2022/11/14 09:51:08;;;;;;;;;;;14.80;99.90;;;;;;5065187;28;19913;-71
2022/11/14 09:53:41;;;;;;;;;;;14.80;99.90;;;;;;5076467;28;20002;-71
2022/11/14 09:56:10;;;;;;;;;;;14.80;99.90;;;;;;5075037;28;19916;-71
2022/11/14 09:58:36;;;;;;;;;;;14.80;99.90;;;;;;5059337;28;19991;-70
2022/11/14 10:01:14;;;;;;;;;;;14.90;99.90;;;;;;5074943;28;19952;-67
2022/11/14 10:03:41;;;;;;;;;;;14.90;99.90;;;;;;5088484;28;19912;-65
2022/11/14 10:06:10;;;;;;;;;;;14.80;99.90;;;;;;5076952;28;19928;-63
2022/11/14 10:08:38;;;;;;;;;;;14.90;99.90;;;;;;5063862;28;19913;-65
2022/11/14 10:11:19;;;;;;;;;;;15.00;99.90;;;;;;5073278;28;19924;-68
2022/11/14 10:14:04;;;;;;;;;;;14.90;99.90;;;;;;5071631;28;19951;-71
2022/11/14 10:16:32;;;;;;;;;;;14.90;99.90;;;;;;5070200;28;19919;-71
2022/11/14 10:19:04;;;;;;;;;;;14.90;99.90;;;;;;5070360;28;19913;-71
2022/11/14 10:21:33;;;;;;;;;;;14.90;99.90;;;;;;5069538;28;19919;-72
2022/11/14 10:24:08;;;;;;;;;;;14.90;99.90;;;;;;5062027;28;19917;-72
2022/11/14 10:26:37;;;;;;;;;;;15.00;99.90;;;;;;5059674;28;19920;-72
2022/11/14 10:29:02;;;;;;;;;;;15.00;99.90;;;;;;5074981;28;19923;-72
2022/11/14 10:31:41;;;;;;;;;;;15.10;99.90;;;;;;5072571;28;19913;-72
2022/11/14 10:34:26;;;;;;;;;;;15.20;99.90;;;;;;5068714;28;19916;-72
2022/11/14 10:37:11;;;;;;;;;;;15.20;99.90;;;;;;5072024;28;19928;-72
2022/11/14 10:39:40;;;;;;;;;;;15.10;99.90;;;;;;5072673;28;19919;-72
2022/11/14 10:42:14;;;;;;;;;;;15.10;99.90;;;;;;5066878;28;19912;-72
2022/11/14 10:44:46;;;;;;;;;;;15.00;99.90;;;;;;5073818;28;19923;-72
2022/11/14 10:47:13;;;;;;;;;;;15.00;99.90;;;;;;5073477;28;20302;-72
2022/11/14 10:49:39;;;;;;;;;;;15.10;99.90;;;;;;5055524;28;19918;-72
2022/11/14 10:52:08;;;;;;;;;;;15.20;99.90;;;;;;5074129;28;20363;-72
2022/11/14 10:54:40;;;;;;;;;;;15.20;99.90;;;;;;5053267;28;19956;-72
2022/11/14 10:57:13;;;;;;;;;;;15.20;99.90;;;;;;5070637;28;19916;-71
2022/11/14 10:59:39;;;;;;;;;;;15.20;99.90;;;;;;5074231;28;19912;-72
2022/11/14 11:02:05;;;;;;;;;;;15.20;99.90;;;;;;5071995;28;20524;-72
2022/11/14 11:04:35;;;;;;;;;;;15.20;99.90;;;;;;5049483;28;19963;-72
2022/11/14 11:07:07;;;;;;;;;;;15.20;99.90;;;;;;5070362;28;19933;-72
2022/11/14 11:12:22;;;;;;;;;;;15.10;99.90;;;;;;5078012;28;20385;-72
2022/11/14 11:14:49;;;;;;;;;;;15.20;99.90;;;;;;5072328;28;20370;-72
2022/11/14 11:17:19;;;;;;;;;;;15.20;99.90;;;;;;5046178;28;19963;-73
2022/11/14 11:19:47;;;;;;;;;;;15.30;99.90;;;;;;5073498;28;19916;-72
2022/11/14 11:22:35;;;;;;;;;;;15.30;99.90;;;;;;5069948;28;20362;-72
2022/11/14 11:25:02;;;;;;;;;;;15.40;99.90;;;;;;5072696;28;19913;-72
2022/11/14 11:27:29;;;;;;;;;;;15.40;99.90;;;;;;5065149;28;19920;-72
2022/11/14 11:30:03;;;;;;;;;;;15.50;99.90;;;;;;5065153;28;20286;-73
2022/11/14 11:32:28;;;;;;;;;;;15.50;99.90;;;;;;5076759;28;19965;-72
2022/11/14 11:34:55;;;;;;;;;;;15.50;99.90;;;;;;5067352;28;19912;-72
2022/11/14 11:37:24;;;;;;;;;;;15.50;99.90;;;;;;5078608;28;20020;-72
2022/11/14 11:40:01;;;;;;;;;;;15.60;99.90;;;;;;5067747;28;19919;-72
2022/11/14 11:42:33;;;;;;;;;;;15.50;99.90;;;;;;5071284;28;19919;-72
2022/11/14 11:45:01;;;;;;;;;;;15.60;99.90;;;;;;5052990;28;20366;-71
2022/11/14 11:47:28;;;;;;;;;;;15.60;99.90;;;;;;5071752;28;19947;-72
2022/11/14 11:49:54;;;;;;;;;;;15.50;99.90;;;;;;5075043;28;19913;-72
2022/11/14 11:52:28;;;;;;;;;;;15.50;99.90;;;;;;5062216;28;19918;-71
2022/11/14 11:55:01;;;;;;;;;;;15.40;99.90;;;;;;5075124;28;19922;-72
2022/11/14 11:57:29;;;;;;;;;;;15.40;99.90;;;;;;5081502;28;19924;-72
2022/11/14 12:00:00;;;;;;;;;;;15.40;99.90;;;;;;5067022;28;19912;-72
2022/11/14 12:02:26;;;;;;;;;;;15.30;99.90;;;;;;5066142;28;19912;-72
2022/11/14 12:04:55;;;;;;;;;;;15.00;99.90;;;;;;5068612;28;19919;-71
2022/11/14 12:07:25;;;;;;;;;;;15.00;99.90;;;;;;5077160;28;20374;-71
2022/11/14 12:09:52;;;;;;;;;;;15.00;99.90;;;;;;5072368;28;19912;-71
2022/11/14 12:12:18;;;;;;;;;;;14.90;99.90;;;;;;5069971;28;20066;-72
2022/11/14 12:14:47;;;;;;;;;;;14.80;99.90;;;;;;5080278;28;20382;-71
2022/11/14 12:17:25;;;;;;;;;;;14.80;99.90;;;;;;5068966;28;20607;-71
2022/11/14 12:19:52;;;;;;;;;;;14.70;99.90;;;;;;5078606;28;20317;-71
2022/11/14 12:22:19;;;;;;;;;;;14.60;99.90;;;;;;5049588;28;19917;-71
2022/11/14 12:24:44;;;;;;;;;;;14.60;99.90;;;;;;5076309;28;20469;-71
2022/11/14 12:27:18;;;;;;;;;;;14.50;99.90;;;;;;5069864;28;19939;-71
2022/11/14 12:29:52;;;;;;;;;;;14.60;99.90;;;;;;5060343;28;19967;-71
2022/11/14 12:32:25;;;;;;;;;;;14.50;99.90;;;;;;5070176;28;19921;-71
2022/11/14 12:34:51;;;;;;;;;;;14.50;99.90;;;;;;5080350;28;20382;-71
2022/11/14 12:37:21;;;;;;;;;;;14.50;99.90;;;;;;5056741;28;19981;-71
2022/11/14 12:39:58;;;;;;;;;;;14.50;99.90;;;;;;5072920;28;19913;-72
2022/11/14 12:42:24;;;;;;;;;;;14.50;99.90;;;;;;5070725;28;19930;-71
2022/11/14 12:44:51;;;;;;;;;;;14.50;99.90;;;;;;5071449;28;19920;-72
2022/11/14 12:47:18;;;;;;;;;;;14.50;99.90;;;;;;5075079;28;19916;-72
2022/11/14 12:49:46;;;;;;;;;;;14.40;99.90;;;;;;5084602;28;19962;-71
2022/11/14 12:52:31;;;;;;;;;;;14.40;99.90;;;;;;5076929;28;19967;-72
2022/11/14 12:54:57;;;;;;;;;;;14.30;99.90;;;;;;5083930;28;19909;-72
2022/11/14 12:57:48;;;;;;;;;;;14.20;99.90;;;;;;5045216;28;19923;-71
2022/11/14 13:00:15;;;;;;;;;;;14.00;99.90;;;;;;5076666;28;19912;-71
2022/11/14 13:02:43;;;;;;;;;;;13.90;99.90;;;;;;5073587;28;20374;-72
2022/11/14 13:05:27;;;;;;;;;;;13.90;99.90;;;;;;5077209;28;20179;-72
2022/11/14 13:08:12;;;;;;;;;;;13.90;99.90;;;;;;5079960;28;20415;-71
2022/11/14 13:10:38;;;;;;;;;;;13.90;99.90;;;;;;5068890;28;19944;-71
2022/11/14 13:22:00;;;;;;;;;;;13.90;99.90;;;;;;5069898;28;20004;-71
2022/11/14 13:24:46;;;;;;;;;;;13.80;99.90;;;;;;5032887;28;20397;-71
2022/11/14 13:27:31;;;;;;;;;;;13.80;99.90;;;;;;5081453;28;19917;-71
2022/11/14 13:29:59;;;;;;;;;;;13.70;99.90;;;;;;5077469;28;19995;-71
2022/11/14 13:32:40;;;;;;;;;;;13.70;99.90;;;;;;5054935;28;19912;-71
2022/11/14 13:35:24;;;;;;;;;;;13.70;99.90;;;;;;5076084;28;20366;-71
2022/11/14 13:37:49;;;;;;;;;;;13.60;99.90;;;;;;5079453;28;20367;-71
2022/11/14 13:40:24;;;;;;;;;;;13.60;99.90;;;;;;5076649;28;19927;-69
2022/11/14 13:43:03;;;;;;;;;;;13.50;99.90;;;;;;5066884;28;19958;-70
2022/11/14 13:45:29;;;;;;;;;;;13.50;99.90;;;;;;5072322;28;19999;-70
2022/11/14 13:48:18;;;;;;;;;;;13.40;99.90;;;;;;5075843;28;19939;-70
2022/11/14 13:50:46;;;;;;;;;;;13.40;99.90;;;;;;5016170;28;19928;-71
2022/11/14 13:53:22;;;;;;;;;;;13.40;99.90;;;;;;5076328;28;19920;-71
2022/11/14 13:56:07;;;;;;;;;;;13.30;99.90;;;;;;5076058;28;19952;-71
2022/11/14 13:58:51;;;;;;;;;;;13.30;99.90;;;;;;5076404;28;19916;-71
2022/11/14 14:01:32;;;;;;;;;;;13.30;99.90;;;;;;5057823;28;20007;-71
2022/11/14 14:04:13;;;;;;;;;;;13.30;99.90;;;;;;5071814;28;19920;-72
2022/11/14 14:06:45;;;;;;;;;;;13.40;99.90;;;;;;5083780;28;19917;-72
2022/11/14 14:09:26;;;;;;;;;;;13.30;99.90;;;;;;5066877;28;19912;-72
2022/11/14 14:12:00;;;;;;;;;;;13.30;99.90;;;;;;5083417;28;19948;-73
2022/11/14 14:14:31;;;;;;;;;;;13.30;99.90;;;;;;5075995;28;19912;-72
2022/11/14 14:17:10;;;;;;;;;;;13.30;99.90;;;;;;5083976;28;19920;-72
2022/11/14 14:20:02;;;;;;;;;;;13.30;99.90;;;;;;5078467;28;19912;-72
2022/11/14 14:22:31;;;;;;;;;;;13.20;99.90;;;;;;5036194;28;19932;-71
2022/11/14 14:25:01;;;;;;;;;;;13.20;99.90;;;;;;5085960;28;20259;-71
2022/11/14 14:28:03;;;;;;;;;;;13.20;99.90;;;;;;5079045;28;19916;-69
2022/11/14 14:30:28;;;;;;;;;;;13.20;99.90;;;;;;5031866;28;19913;-70
2022/11/14 14:33:21;;;;;;;;;;;13.20;99.90;;;;;;5061750;28;20022;-71
2022/11/14 14:35:50;;;;;;;;;;;13.20;99.90;;;;;;5050983;28;19954;-71
2022/11/14 14:38:24;;;;;;;;;;;13.20;99.90;;;;;;5067304;28;19955;-71
2022/11/14 14:40:52;;;;;;;;;;;13.10;99.90;;;;;;5069737;28;19912;-70
2022/11/14 14:43:36;;;;;;;;;;;13.10;99.90;;;;;;5060297;28;20390;-70
2022/11/14 14:46:02;;;;;;;;;;;13.10;99.90;;;;;;5056117;28;19978;-70
2022/11/14 14:48:29;;;;;;;;;;;13.10;99.90;;;;;;5080258;28;20373;-70
2022/11/14 14:50:58;;;;;;;;;;;13.10;99.90;;;;;;5078607;28;19912;-70
2022/11/14 14:53:24;;;;;;;;;;;13.10;99.90;;;;;;5069433;28;19917;-70